23NR weather

Whitfield'S East Airport
Fairfield, North Carolina, United States

Public forecast

Using degrees Fahrenheit for public forecast. Weather courtesy of forecast.io.

Closest aviation weather report (METAR) to Whitfield'S East Airport

Closest report is Hyde County Airport, 13.7 nm (25.3 km) E. Retrieved 2020/02/20 04:35 UTC (0 seconds ago):

K7W6 200435Z AUTO 36003KT 10SM OVC075 07/02 A3040 RMK AO2 T00700016

Closest aviation forecast (TAF) to Whitfield'S East Airport

Closest forecast is Elizabeth City Regional Airport & Coast Guard Air Station, 42.1 nm (78.0 km) N. Retrieved 2020-02-20 00:39 UTC (4 hours ago):

TAF TAF KECG 192335Z 2000/2024 02006KT P6SM OVC120 FM201600 03012KT P6SM OVC050 FM202100 02013G20KT 6SM -RA OVC025 FM202300 02014G21KT 6SM -RASN OVC010